createdAt,value
2022-09-06T00:00:36.719Z,21.37
2022-09-06T00:03:03.791Z,21.34
2022-09-06T00:05:30.210Z,21.31
2022-09-06T00:07:57.384Z,21.31
2022-09-06T00:10:23.775Z,21.36
2022-09-06T00:12:51.048Z,21.38
2022-09-06T00:18:32.233Z,21.13
2022-09-06T00:20:58.712Z,20.92
2022-09-06T00:23:25.135Z,20.71
2022-09-06T00:25:52.192Z,20.53
2022-09-06T00:28:19.391Z,20.42
2022-09-06T00:30:45.984Z,20.22
2022-09-06T00:33:12.463Z,20.11
2022-09-06T00:35:38.985Z,20.15
2022-09-06T00:38:05.436Z,19.96
2022-09-06T00:40:32.980Z,19.87
2022-09-06T00:42:59.352Z,19.74
2022-09-06T00:45:25.801Z,19.65
2022-09-06T00:47:52.289Z,19.53
2022-09-06T00:50:18.829Z,19.52
2022-09-06T00:52:45.218Z,19.52
2022-09-06T00:55:11.679Z,19.50
2022-09-06T00:57:38.139Z,19.41
2022-09-06T01:00:05.701Z,19.32
2022-09-06T01:02:33.112Z,19.30
2022-09-06T01:04:59.675Z,19.13
2022-09-06T01:07:26.215Z,19.10
2022-09-06T01:09:52.668Z,19.06
2022-09-06T01:12:19.110Z,18.99
2022-09-06T01:14:45.622Z,19.00
2022-09-06T01:17:12.096Z,18.99
2022-09-06T01:19:38.570Z,18.99
2022-09-06T01:22:04.940Z,19.01
2022-09-06T01:24:32.342Z,19.08
2022-09-06T01:26:58.840Z,19.12
2022-09-06T01:29:26.073Z,19.12
2022-09-06T01:31:52.464Z,19.10
2022-09-06T01:34:18.931Z,19.14
2022-09-06T01:37:06.389Z,19.20
2022-09-06T01:39:32.494Z,19.17
2022-09-06T01:41:58.975Z,19.20
2022-09-06T01:44:25.418Z,19.23
2022-09-06T01:46:52.695Z,19.18
2022-09-06T01:49:19.219Z,19.23
2022-09-06T01:51:45.572Z,19.10
2022-09-06T01:54:12.276Z,18.98
2022-09-06T01:56:38.644Z,18.90
2022-09-06T01:59:05.109Z,18.83
2022-09-06T02:01:31.755Z,18.75
2022-09-06T02:03:58.197Z,18.74
2022-09-06T02:06:26.933Z,18.75
2022-09-06T02:08:53.589Z,18.80
2022-09-06T02:11:20.154Z,18.85
2022-09-06T02:13:47.341Z,18.89
2022-09-06T02:16:14.328Z,18.87
2022-09-06T02:18:40.946Z,18.83
2022-09-06T02:21:07.384Z,18.76
2022-09-06T02:23:33.909Z,18.75
2022-09-06T02:26:00.323Z,18.72
2022-09-06T02:28:26.787Z,18.77
2022-09-06T02:30:53.441Z,18.72
2022-09-06T02:33:20.718Z,18.68
2022-09-06T02:35:47.212Z,18.64
2022-09-06T02:38:13.673Z,18.63
2022-09-06T02:40:40.207Z,18.56
2022-09-06T02:43:06.670Z,18.53
2022-09-06T02:45:33.253Z,18.57
2022-09-06T02:48:00.471Z,18.49
2022-09-06T02:50:27.109Z,18.45
2022-09-06T02:52:57.019Z,18.38
2022-09-06T02:55:23.353Z,18.33
2022-09-06T02:57:49.811Z,18.29
2022-09-06T03:00:16.229Z,18.32
2022-09-06T03:02:43.760Z,18.38
2022-09-06T03:05:11.095Z,18.40
2022-09-06T03:07:38.311Z,18.41
2022-09-06T03:10:05.039Z,18.43
2022-09-06T03:12:31.858Z,18.47
2022-09-06T03:14:59.235Z,18.49
2022-09-06T03:17:25.956Z,18.46
2022-09-06T03:19:52.401Z,18.45
2022-09-06T03:22:18.834Z,18.45
2022-09-06T03:24:45.280Z,18.46
2022-09-06T03:27:11.890Z,18.44
2022-09-06T03:29:39.146Z,18.42
2022-09-06T03:32:05.514Z,18.40
2022-09-06T03:34:31.952Z,18.39
2022-09-06T03:36:59.508Z,18.36
2022-09-06T03:39:26.047Z,18.35
2022-09-06T03:41:52.486Z,18.32
2022-09-06T03:44:19.004Z,18.26
2022-09-06T03:46:46.322Z,18.24
2022-09-06T03:49:13.147Z,18.16
2022-09-06T03:51:39.745Z,18.10
2022-09-06T03:54:06.262Z,18.03
2022-09-06T03:56:32.850Z,17.93
2022-09-06T03:59:00.239Z,17.90
2022-09-06T04:01:26.716Z,17.85
2022-09-06T04:03:53.092Z,17.81
2022-09-06T04:06:20.294Z,17.78
2022-09-06T04:08:46.856Z,17.72
2022-09-06T04:11:14.333Z,17.64
2022-09-06T04:13:41.608Z,17.55
2022-09-06T04:16:08.286Z,17.51
2022-09-06T04:18:34.765Z,17.50
2022-09-06T04:21:01.298Z,17.50
2022-09-06T04:23:27.715Z,17.48
2022-09-06T04:25:54.251Z,17.43
2022-09-06T04:28:21.339Z,17.36
2022-09-06T04:30:47.807Z,17.34
2022-09-06T04:33:14.221Z,17.35
2022-09-06T04:35:40.776Z,17.42
2022-09-06T04:38:07.187Z,17.40
2022-09-06T04:40:33.620Z,17.40
2022-09-06T04:43:01.114Z,17.39
2022-09-06T04:45:27.669Z,17.36
2022-09-06T04:47:54.115Z,17.31
2022-09-06T04:50:22.282Z,17.29
2022-09-06T04:52:48.712Z,17.26
2022-09-06T04:55:15.263Z,17.24
2022-09-06T04:57:46.555Z,17.23
2022-09-06T05:00:14.972Z,17.24
2022-09-06T05:02:41.467Z,17.21
2022-09-06T05:05:08.188Z,17.18
2022-09-06T05:07:34.639Z,17.18
2022-09-06T05:10:01.117Z,17.18
2022-09-06T05:12:27.636Z,17.19
2022-09-06T05:14:54.169Z,17.22
2022-09-06T05:17:20.836Z,17.28
2022-09-06T05:19:49.301Z,17.33
2022-09-06T05:22:15.667Z,17.36
2022-09-06T05:24:42.204Z,17.41
2022-09-06T05:27:08.684Z,17.44
2022-09-06T05:29:35.177Z,17.48
2022-09-06T05:32:01.729Z,17.50
2022-09-06T05:34:28.388Z,17.53
2022-09-06T05:36:54.914Z,17.56
2022-09-06T05:39:21.992Z,17.60
2022-09-06T05:41:49.308Z,17.67
2022-09-06T05:44:15.791Z,17.72
2022-09-06T05:46:42.225Z,17.78
2022-09-06T05:49:10.382Z,17.84
2022-09-06T05:51:36.791Z,17.91
2022-09-06T05:54:03.219Z,18.00
2022-09-06T05:56:29.746Z,18.09
2022-09-06T05:58:56.267Z,18.43
2022-09-06T06:01:22.736Z,19.95
2022-09-06T06:03:49.214Z,21.79
2022-09-06T06:06:15.646Z,23.05
2022-09-06T06:08:42.099Z,24.11
2022-09-06T06:11:08.605Z,25.25
2022-09-06T06:13:39.355Z,26.01
2022-09-06T06:16:05.888Z,26.67
2022-09-06T06:18:32.363Z,27.27
2022-09-06T06:20:58.872Z,27.89
2022-09-06T06:23:25.875Z,28.34
2022-09-06T06:25:53.351Z,28.34
2022-09-06T06:28:19.764Z,28.19
2022-09-06T06:30:46.224Z,28.53
2022-09-06T06:33:12.645Z,29.01
2022-09-06T06:35:40.209Z,28.88
2022-09-06T06:38:06.624Z,29.32
2022-09-06T06:40:33.652Z,29.61
2022-09-06T06:43:00.425Z,29.89
2022-09-06T06:45:27.731Z,30.39
2022-09-06T06:47:54.200Z,30.90
2022-09-06T06:50:20.885Z,31.05
2022-09-06T06:52:50.275Z,30.96
2022-09-06T06:55:19.848Z,31.19
2022-09-06T06:57:46.291Z,30.99
2022-09-06T07:00:12.787Z,31.56
2022-09-06T07:02:39.227Z,32.03
2022-09-06T07:07:52.074Z,32.18
2022-09-06T07:10:34.237Z,32.29
2022-09-06T07:13:00.979Z,32.10
2022-09-06T07:15:27.393Z,32.33
2022-09-06T07:17:54.642Z,32.57
2022-09-06T07:20:21.115Z,32.90
2022-09-06T07:22:47.696Z,33.66
2022-09-06T07:25:20.375Z,33.61
2022-09-06T07:27:49.855Z,34.32
2022-09-06T07:30:16.864Z,33.44
2022-09-06T07:32:43.411Z,33.21
2022-09-06T07:35:10.121Z,32.36
2022-09-06T07:37:36.692Z,33.39
2022-09-06T07:40:03.210Z,34.61
2022-09-06T07:42:36.076Z,35.38
2022-09-06T07:45:03.078Z,35.65
2022-09-06T07:53:13.036Z,34.17
2022-09-06T07:55:43.424Z,34.07
2022-09-06T07:58:09.994Z,34.71
2022-09-06T08:00:38.308Z,34.47
2022-09-06T08:03:04.913Z,35.07
2022-09-06T08:11:07.554Z,34.14
2022-09-06T08:13:33.995Z,35.23
2022-09-06T08:16:00.584Z,35.78
2022-09-06T08:18:27.070Z,34.48
2022-09-06T08:20:53.506Z,34.17
2022-09-06T08:23:19.906Z,34.22
2022-09-06T08:25:47.382Z,34.04
2022-09-06T08:28:15.152Z,35.08
2022-09-06T08:30:41.738Z,34.72
2022-09-06T08:33:08.188Z,34.34
2022-09-06T08:35:34.664Z,33.78
2022-09-06T08:38:01.084Z,32.90
2022-09-06T08:40:27.568Z,33.52
2022-09-06T08:42:54.373Z,34.30
2022-09-06T08:45:23.304Z,34.55
2022-09-06T08:47:51.115Z,35.11
2022-09-06T08:50:17.567Z,34.67
2022-09-06T08:52:49.725Z,34.56
2022-09-06T08:55:31.406Z,34.10
2022-09-06T08:57:57.795Z,34.62
2022-09-06T09:00:24.484Z,35.66
2022-09-06T09:02:55.628Z,36.06
2022-09-06T09:05:22.287Z,36.26
2022-09-06T09:07:48.955Z,36.94
2022-09-06T09:10:16.298Z,36.94
2022-09-06T09:12:42.779Z,36.68
2022-09-06T09:15:10.001Z,35.71
2022-09-06T09:17:37.267Z,35.00
2022-09-06T09:20:03.895Z,34.89
2022-09-06T09:22:30.285Z,35.44
2022-09-06T09:24:56.719Z,35.75
2022-09-06T09:27:23.188Z,35.93
2022-09-06T09:32:37.157Z,35.18
2022-09-06T09:35:03.653Z,35.07
2022-09-06T09:40:13.267Z,34.90
2022-09-06T09:42:39.858Z,34.96
2022-09-06T09:45:07.255Z,34.43
2022-09-06T09:47:33.782Z,33.32
2022-09-06T09:50:00.294Z,32.56
2022-09-06T09:52:27.437Z,32.58
2022-09-06T09:54:56.199Z,32.54
2022-09-06T09:57:22.713Z,32.64
2022-09-06T09:59:49.255Z,32.90
2022-09-06T10:02:17.260Z,32.70
2022-09-06T10:04:44.504Z,32.50
2022-09-06T10:07:11.578Z,31.94
2022-09-06T10:09:39.491Z,31.33
2022-09-06T10:12:05.912Z,30.62
2022-09-06T10:14:33.746Z,30.31
2022-09-06T10:17:00.649Z,30.46
2022-09-06T10:19:27.141Z,30.31
2022-09-06T10:21:53.723Z,30.42
2022-09-06T10:24:27.898Z,30.58
2022-09-06T10:26:54.769Z,30.60
2022-09-06T10:29:22.532Z,30.19
2022-09-06T10:31:49.125Z,30.09
2022-09-06T10:34:16.143Z,30.05
2022-09-06T10:36:42.707Z,30.18
2022-09-06T10:39:09.192Z,30.27
2022-09-06T10:41:35.840Z,30.36
2022-09-06T10:44:02.424Z,30.44
2022-09-06T10:46:29.290Z,30.46
2022-09-06T10:48:55.952Z,30.43
2022-09-06T10:51:24.449Z,30.46
2022-09-06T10:53:50.871Z,30.40
2022-09-06T10:56:17.414Z,30.42
2022-09-06T11:01:30.507Z,30.52
2022-09-06T11:04:00.318Z,30.43
2022-09-06T11:06:31.397Z,30.19
2022-09-06T11:08:59.482Z,30.23
2022-09-06T11:11:26.063Z,30.36
2022-09-06T11:13:52.804Z,30.42
2022-09-06T11:16:20.697Z,30.40
2022-09-06T11:18:47.158Z,30.41
2022-09-06T11:21:17.448Z,30.24
2022-09-06T11:23:45.858Z,29.92
2022-09-06T11:26:12.638Z,29.80
2022-09-06T11:28:39.266Z,29.80
2022-09-06T11:31:05.977Z,29.80
2022-09-06T11:33:35.603Z,28.87
2022-09-06T11:36:02.170Z,30.21
2022-09-06T11:38:28.746Z,30.18
2022-09-06T11:40:55.509Z,30.12
2022-09-06T11:43:22.938Z,30.09
2022-09-06T11:45:50.231Z,30.11
2022-09-06T11:48:16.689Z,30.13
2022-09-06T11:50:43.035Z,30.25
2022-09-06T11:53:14.320Z,30.35
2022-09-06T11:55:40.901Z,30.34
2022-09-06T11:58:07.648Z,30.37
2022-09-06T12:00:34.529Z,30.40
2022-09-06T12:05:51.682Z,30.51
2022-09-06T12:08:19.076Z,30.69
2022-09-06T12:10:45.550Z,30.80
2022-09-06T12:13:13.535Z,30.95
2022-09-06T12:15:40.251Z,30.85
2022-09-06T12:18:06.718Z,30.96
2022-09-06T12:20:33.536Z,31.12
2022-09-06T12:23:00.530Z,31.21
2022-09-06T12:25:27.202Z,31.12
2022-09-06T12:27:55.462Z,31.21
2022-09-06T12:30:23.524Z,31.34
2022-09-06T12:32:50.080Z,31.59
2022-09-06T12:38:03.937Z,31.83
2022-09-06T12:40:30.563Z,31.79
2022-09-06T12:42:56.980Z,31.85
2022-09-06T12:45:27.225Z,31.89
2022-09-06T12:47:56.358Z,31.82
2022-09-06T12:50:23.819Z,31.89
2022-09-06T12:52:50.322Z,31.75
2022-09-06T12:55:16.790Z,31.72
2022-09-06T12:57:43.224Z,31.75
2022-09-06T13:00:09.640Z,31.76
2022-09-06T13:02:37.407Z,31.84
2022-09-06T13:05:05.537Z,31.99
2022-09-06T13:07:32.020Z,32.03
2022-09-06T13:09:58.625Z,31.90
2022-09-06T13:12:26.380Z,32.22
2022-09-06T13:14:52.897Z,32.37
2022-09-06T13:17:20.178Z,32.41
2022-09-06T13:19:46.694Z,32.51
2022-09-06T13:22:13.221Z,32.69
2022-09-06T13:24:46.902Z,32.64
2022-09-06T13:27:14.788Z,32.81
2022-09-06T13:29:41.186Z,32.83
2022-09-06T13:32:09.608Z,32.88
2022-09-06T13:34:36.767Z,32.95
2022-09-06T13:37:03.430Z,31.76
2022-09-06T13:39:31.522Z,32.72
2022-09-06T13:41:58.997Z,32.54
2022-09-06T13:44:25.390Z,32.50
2022-09-06T13:46:51.969Z,32.44
2022-09-06T13:49:18.366Z,32.42
2022-09-06T13:51:44.836Z,32.47
2022-09-06T13:54:12.084Z,32.40
2022-09-06T13:56:39.308Z,32.07
2022-09-06T13:59:05.844Z,31.98
2022-09-06T14:01:32.554Z,31.84
2022-09-06T14:03:59.107Z,31.89
2022-09-06T14:06:25.647Z,31.85
2022-09-06T14:09:08.640Z,31.80
2022-09-06T14:11:35.372Z,31.73
2022-09-06T14:14:01.846Z,31.67
2022-09-06T14:16:30.116Z,31.57
2022-09-06T14:18:56.646Z,31.48
2022-09-06T14:21:23.203Z,31.42
2022-09-06T14:23:51.093Z,31.42
2022-09-06T14:26:19.025Z,31.56
2022-09-06T14:28:46.002Z,31.66
2022-09-06T14:31:12.676Z,31.69
2022-09-06T14:33:39.223Z,31.74
2022-09-06T14:36:06.649Z,31.71
2022-09-06T14:38:33.218Z,31.80
2022-09-06T14:40:59.784Z,31.80
2022-09-06T14:43:26.304Z,31.91
2022-09-06T14:45:52.794Z,31.94
2022-09-06T14:48:19.913Z,31.91
2022-09-06T14:50:47.082Z,31.81
2022-09-06T14:53:38.825Z,31.89
2022-09-06T14:56:03.196Z,31.88
2022-09-06T14:58:31.028Z,31.82
2022-09-06T15:00:57.906Z,31.79
2022-09-06T15:03:24.608Z,31.70
2022-09-06T15:05:52.027Z,31.57
2022-09-06T15:08:19.053Z,31.40
2022-09-06T15:10:45.901Z,31.40
2022-09-06T15:13:12.463Z,31.27
2022-09-06T15:15:39.043Z,31.27
2022-09-06T15:18:05.565Z,31.22
2022-09-06T15:20:33.164Z,31.17
2022-09-06T15:23:34.258Z,31.21
2022-09-06T15:25:47.119Z,31.25
2022-09-06T15:28:13.969Z,31.25
2022-09-06T15:30:43.009Z,31.12
2022-09-06T15:33:10.240Z,31.20
2022-09-06T15:35:37.006Z,31.23
2022-09-06T15:38:03.471Z,31.12
2022-09-06T15:40:29.982Z,31.02
2022-09-06T15:42:56.391Z,30.89
2022-09-06T15:45:23.189Z,30.75
2022-09-06T15:47:50.550Z,30.70
2022-09-06T15:50:34.475Z,30.70
2022-09-06T15:53:04.347Z,30.67
2022-09-06T15:55:49.579Z,30.58
2022-09-06T15:58:17.039Z,30.55
2022-09-06T16:00:43.901Z,30.53
2022-09-06T16:03:13.808Z,30.45
2022-09-06T16:08:27.005Z,30.35
2022-09-06T16:10:53.510Z,30.44
2022-09-06T16:13:20.164Z,30.41
2022-09-06T16:15:46.571Z,30.36
2022-09-06T16:18:13.083Z,30.28
2022-09-06T16:20:39.569Z,30.13
2022-09-06T16:23:07.603Z,30.07
2022-09-06T16:25:34.688Z,29.96
2022-09-06T16:28:02.587Z,29.93
2022-09-06T16:30:29.297Z,29.88
2022-09-06T16:32:55.867Z,29.88
2022-09-06T16:35:22.390Z,29.73
2022-09-06T16:37:49.054Z,29.70
2022-09-06T16:40:15.736Z,29.62
2022-09-06T16:42:42.290Z,29.49
2022-09-06T16:45:08.731Z,29.34
2022-09-06T16:47:37.702Z,29.24
2022-09-06T16:50:04.159Z,29.15
2022-09-06T16:52:30.663Z,29.00
2022-09-06T16:54:57.632Z,28.84
2022-09-06T16:57:24.962Z,28.73
2022-09-06T16:59:51.580Z,28.61
2022-09-06T17:02:22.117Z,28.52
2022-09-06T17:04:49.643Z,28.48
2022-09-06T17:07:16.089Z,28.41
2022-09-06T17:09:45.588Z,28.34
2022-09-06T17:12:12.042Z,28.28
2022-09-06T17:14:38.616Z,28.25
2022-09-06T17:17:05.328Z,28.24
2022-09-06T17:19:32.069Z,28.21
2022-09-06T17:21:58.575Z,28.21
2022-09-06T17:24:27.162Z,28.16
2022-09-06T17:26:53.718Z,28.16
2022-09-06T17:29:20.599Z,28.18
2022-09-06T17:31:49.401Z,28.16
2022-09-06T17:34:17.102Z,28.16
2022-09-06T17:36:43.803Z,28.19
2022-09-06T17:39:11.594Z,28.16
2022-09-06T17:41:38.974Z,28.04
2022-09-06T17:44:05.724Z,27.94
2022-09-06T17:46:32.233Z,27.87
2022-09-06T17:48:58.949Z,27.78
2022-09-06T17:51:25.376Z,27.64
2022-09-06T17:53:52.587Z,27.52
2022-09-06T17:56:19.026Z,27.38
2022-09-06T17:58:46.354Z,27.29
2022-09-06T18:01:13.180Z,27.23
2022-09-06T18:03:39.654Z,27.13
2022-09-06T18:06:07.530Z,27.10
2022-09-06T18:08:34.052Z,27.06
2022-09-06T18:11:00.603Z,27.05
2022-09-06T18:13:27.315Z,27.02
2022-09-06T18:15:53.943Z,26.97
2022-09-06T18:18:21.838Z,26.94
2022-09-06T18:20:52.757Z,26.94
2022-09-06T18:23:20.444Z,26.96
2022-09-06T18:25:47.145Z,26.92
2022-09-06T18:28:14.764Z,26.92
2022-09-06T18:30:42.227Z,26.87
2022-09-06T18:33:09.746Z,26.90
2022-09-06T18:35:36.176Z,26.91
2022-09-06T18:38:03.111Z,26.92
2022-09-06T18:40:30.883Z,26.92
2022-09-06T18:42:57.587Z,26.94
2022-09-06T18:45:25.074Z,26.96
2022-09-06T18:47:52.639Z,26.95
2022-09-06T18:50:20.214Z,26.93
2022-09-06T18:52:47.014Z,26.86
2022-09-06T18:55:13.473Z,26.72
2022-09-06T18:57:39.981Z,26.59
2022-09-06T19:00:07.500Z,26.46
2022-09-06T19:02:34.988Z,26.35
2022-09-06T19:05:01.545Z,26.26
2022-09-06T19:07:29.785Z,26.18
2022-09-06T19:09:56.502Z,26.11
2022-09-06T19:12:23.146Z,26.03
2022-09-06T19:14:52.454Z,25.97
2022-09-06T19:17:19.302Z,25.93
2022-09-06T19:19:48.581Z,25.90
2022-09-06T19:22:15.519Z,25.84
2022-09-06T19:24:44.439Z,25.79
2022-09-06T19:27:12.049Z,25.74
2022-09-06T19:29:38.692Z,25.69
2022-09-06T19:32:06.459Z,25.65
2022-09-06T19:34:34.018Z,25.60
2022-09-06T19:37:00.844Z,25.55
2022-09-06T19:39:36.844Z,25.51
2022-09-06T19:42:04.650Z,25.46
2022-09-06T19:44:31.462Z,25.39
2022-09-06T19:46:59.914Z,25.32
2022-09-06T19:49:27.688Z,25.24
2022-09-06T19:51:54.247Z,25.13
2022-09-06T19:54:20.729Z,25.04
2022-09-06T19:56:48.682Z,24.96
2022-09-06T19:59:15.628Z,24.87
2022-09-06T20:01:46.650Z,24.75
2022-09-06T20:04:14.946Z,24.66
2022-09-06T20:06:41.514Z,24.55
2022-09-06T20:09:09.044Z,24.47
2022-09-06T20:11:35.636Z,24.39
2022-09-06T20:14:06.041Z,24.33
2022-09-06T20:16:32.551Z,24.28
2022-09-06T20:19:00.170Z,24.26
2022-09-06T20:21:27.565Z,24.27
2022-09-06T20:23:54.120Z,24.27
2022-09-06T20:26:26.899Z,24.21
2022-09-06T20:28:54.061Z,24.16
2022-09-06T20:31:20.817Z,24.00
2022-09-06T20:33:50.069Z,23.73
2022-09-06T20:36:16.925Z,23.39
2022-09-06T20:38:44.279Z,23.10
2022-09-06T20:41:11.044Z,22.75
2022-09-06T20:43:37.849Z,22.51
2022-09-06T20:46:04.451Z,22.24
2022-09-06T20:48:31.171Z,22.23
2022-09-06T20:50:57.729Z,22.18
2022-09-06T20:53:24.249Z,22.17
2022-09-06T20:55:50.794Z,22.28
2022-09-06T20:58:17.379Z,22.45
2022-09-06T21:00:43.897Z,22.54
2022-09-06T21:03:14.696Z,22.63
2022-09-06T21:05:41.109Z,22.63
2022-09-06T21:08:07.685Z,22.54
2022-09-06T21:10:35.464Z,22.29
2022-09-06T21:13:01.955Z,22.15
2022-09-06T21:15:29.504Z,22.09
2022-09-06T21:17:56.851Z,22.12
2022-09-06T21:20:23.442Z,22.03
2022-09-06T21:22:49.964Z,22.06
2022-09-06T21:25:16.800Z,22.17
2022-09-06T21:27:43.372Z,22.38
2022-09-06T21:30:09.993Z,22.45
2022-09-06T21:32:36.515Z,22.44
2022-09-06T21:35:02.903Z,22.45
2022-09-06T21:37:29.316Z,22.42
2022-09-06T21:39:55.848Z,22.39
2022-09-06T21:42:22.247Z,22.39
2022-09-06T21:44:48.794Z,22.39
2022-09-06T21:47:15.865Z,22.42
2022-09-06T21:49:42.376Z,22.40
2022-09-06T21:52:09.023Z,22.34
2022-09-06T21:54:35.578Z,22.31
2022-09-06T21:57:02.126Z,22.31
2022-09-06T21:59:28.563Z,22.29
2022-09-06T22:01:55.069Z,22.25
2022-09-06T22:04:21.603Z,22.24
2022-09-06T22:06:48.168Z,22.20
2022-09-06T22:09:14.936Z,22.15
2022-09-06T22:11:41.449Z,22.12
2022-09-06T22:14:07.872Z,22.05
2022-09-06T22:16:34.388Z,22.05
2022-09-06T22:19:01.038Z,22.02
2022-09-06T22:21:27.456Z,22.00
2022-09-06T22:23:54.685Z,21.99
2022-09-06T22:26:21.154Z,21.94
2022-09-06T22:28:47.666Z,21.93
2022-09-06T22:31:14.168Z,21.92
2022-09-06T22:33:40.648Z,21.90
2022-09-06T22:36:07.497Z,21.83
2022-09-06T22:38:34.695Z,21.79
2022-09-06T22:41:01.234Z,21.78
2022-09-06T22:43:27.675Z,21.78
2022-09-06T22:45:54.504Z,21.77
2022-09-06T22:48:21.017Z,21.78
2022-09-06T22:50:47.469Z,21.79
2022-09-06T22:53:14.026Z,21.80
2022-09-06T22:55:40.549Z,21.80
2022-09-06T22:58:07.033Z,21.79
2022-09-06T23:00:33.799Z,21.78
2022-09-06T23:03:00.264Z,21.75
2022-09-06T23:05:26.704Z,21.71
2022-09-06T23:07:56.415Z,21.70
2022-09-06T23:10:23.971Z,21.75
2022-09-06T23:12:50.500Z,21.90
2022-09-06T23:15:17.153Z,22.06
2022-09-06T23:17:43.606Z,22.06
2022-09-06T23:20:10.079Z,21.78
2022-09-06T23:22:36.764Z,21.20
2022-09-06T23:25:03.211Z,20.68
2022-09-06T23:27:29.628Z,19.94
2022-09-06T23:29:56.225Z,19.34
2022-09-06T23:32:22.661Z,19.12
2022-09-06T23:34:49.246Z,19.07
